Time;durP1;ratioP1;P1;durP2;ratioP2;P2;SDS_P1;SDS_P2;PMS_P1;PMS_P2;Temp;Humidity;BMP_temperature;BMP_pressure;BME280_temperature;BME280_humidity;BME280_pressure;Samples;Min_cycle;Max_cycle;Signal;HPM_P1;HPM_P2
2023/02/04 00:00:44;;;;;;;3.90;1.95;;;18.50;54.20;;;;;;5093272;28;20256;-58
2023/02/04 00:03:10;;;;;;;5.28;2.25;;;18.40;54.10;;;;;;5092423;28;20212;-57
2023/02/04 00:05:36;;;;;;;5.63;2.58;;;18.40;54.10;;;;;;5092745;28;20650;-57
2023/02/04 00:08:01;;;;;;;5.05;1.85;;;18.40;54.20;;;;;;5092881;28;20169;-56
2023/02/04 00:10:28;;;;;;;4.93;2.22;;;18.40;54.20;;;;;;5091916;28;20174;-56
2023/02/04 00:12:53;;;;;;;5.85;2.70;;;18.40;54.10;;;;;;5092908;28;20624;-57
2023/02/04 00:15:19;;;;;;;3.67;1.95;;;18.30;54.10;;;;;;5092558;28;20243;-57
2023/02/04 00:17:45;;;;;;;4.85;2.30;;;18.30;54.10;;;;;;5091713;28;20243;-57
2023/02/04 00:20:10;;;;;;;4.82;2.33;;;18.30;54.10;;;;;;5092835;28;20170;-56
2023/02/04 00:22:36;;;;;;;6.30;2.60;;;18.30;54.20;;;;;;5092583;28;20177;-57
2023/02/04 00:25:01;;;;;;;6.80;2.58;;;18.30;54.10;;;;;;5092278;28;20174;-56
2023/02/04 00:27:27;;;;;;;3.85;2.05;;;18.20;54.10;;;;;;5092638;28;20162;-56
2023/02/04 00:29:52;;;;;;;5.03;2.22;;;18.20;54.20;;;;;;5092874;28;20264;-53
2023/02/04 00:32:18;;;;;;;6.38;2.80;;;18.20;54.20;;;;;;5091841;28;20223;-57
2023/02/04 00:34:43;;;;;;;4.78;2.40;;;18.20;54.20;;;;;;5092829;28;20170;-57
2023/02/04 00:37:09;;;;;;;7.65;2.63;;;18.20;54.20;;;;;;5092611;28;20518;-56
2023/02/04 00:39:35;;;;;;;4.30;2.15;;;18.20;54.20;;;;;;5091900;28;20174;-57
2023/02/04 00:42:00;;;;;;;5.55;2.45;;;18.20;54.20;;;;;;5092855;28;20174;-57
2023/02/04 00:44:26;;;;;;;5.47;2.55;;;18.20;54.20;;;;;;5092394;28;20219;-57
2023/02/04 00:46:51;;;;;;;5.25;1.98;;;18.20;54.20;;;;;;5091961;28;20257;-56
2023/02/04 00:49:17;;;;;;;5.40;2.15;;;18.10;54.10;;;;;;5092256;28;20174;-55
2023/02/04 00:51:45;;;;;;;4.55;2.33;;;18.10;54.20;;;;;;5095070;28;20192;-56
2023/02/04 00:54:10;;;;;;;4.40;2.17;;;18.10;54.20;;;;;;5095978;28;20184;-56
2023/02/04 00:56:36;;;;;;;6.28;2.78;;;18.10;54.20;;;;;;5096242;28;20217;-57
2023/02/04 00:59:02;;;;;;;4.43;2.22;;;18.00;54.10;;;;;;5096506;28;20628;-56
2023/02/04 01:01:28;;;;;;;4.80;2.10;;;18.10;54.20;;;;;;5095407;28;20716;-57
2023/02/04 01:03:53;;;;;;;6.13;2.85;;;18.00;54.10;;;;;;5096191;28;20174;-57
2023/02/04 01:06:19;;;;;;;6.72;2.63;;;18.10;54.20;;;;;;5095120;28;20185;-56
2023/02/04 01:08:44;;;;;;;4.85;2.15;;;18.00;54.10;;;;;;5096316;28;20685;-57
2023/02/04 01:11:10;;;;;;;6.55;2.47;;;18.00;54.10;;;;;;5096230;28;20178;-54
2023/02/04 01:13:35;;;;;;;4.78;2.13;;;18.00;54.10;;;;;;5095313;28;20177;-57
2023/02/04 01:16:01;;;;;;;6.65;2.92;;;17.90;54.10;;;;;;5096072;28;20205;-57
2023/02/04 01:18:26;;;;;;;6.00;2.63;;;18.00;54.10;;;;;;5095532;28;20228;-58
2023/02/04 01:20:52;;;;;;;6.38;2.88;;;18.00;54.10;;;;;;5095339;28;20173;-55
2023/02/04 01:23:17;;;;;;;4.95;1.95;;;18.00;54.10;;;;;;5095825;28;20197;-54
2023/02/04 01:25:43;;;;;;;5.47;2.40;;;17.90;54.10;;;;;;5095955;28;20551;-57
2023/02/04 01:28:08;;;;;;;4.65;2.35;;;18.00;54.10;;;;;;5095184;28;20532;-54
2023/02/04 01:30:34;;;;;;;6.13;2.45;;;18.00;54.10;;;;;;5095875;28;20181;-57
2023/02/04 01:33:00;;;;;;;4.15;2.15;;;17.90;54.10;;;;;;5095875;28;20501;-56
2023/02/04 01:35:25;;;;;;;4.57;2.17;;;17.90;54.10;;;;;;5094433;28;20292;-56
2023/02/04 01:37:51;;;;;;;7.15;2.72;;;17.90;54.10;;;;;;5095863;28;20169;-57
2023/02/04 01:40:16;;;;;;;5.50;2.90;;;17.90;54.10;;;;;;5095012;28;20696;-57
2023/02/04 01:42:42;;;;;;;4.53;2.03;;;17.90;54.10;;;;;;5095070;28;20282;-57
2023/02/04 01:45:08;;;;;;;4.70;2.45;;;17.90;54.10;;;;;;5095530;28;20170;-56
2023/02/04 01:47:34;;;;;;;5.72;2.70;;;17.90;54.10;;;;;;5095207;28;20548;-55
2023/02/04 01:49:59;;;;;;;5.95;2.28;;;17.90;54.10;;;;;;5094562;28;20174;-55
2023/02/04 01:52:25;;;;;;;5.07;2.45;;;17.80;54.70;;;;;;5077223;28;20180;-56
2023/02/04 01:54:50;;;;;;;4.25;2.35;;;17.80;54.00;;;;;;5060289;28;20165;-56
2023/02/04 01:57:16;;;;;;;7.82;2.55;;;17.80;54.00;;;;;;5094661;28;20656;-56
2023/02/04 01:59:45;;;;;;;5.72;1.95;;;17.80;54.00;;;;;;5077314;28;20165;-56
2023/02/04 02:02:40;;;;;;;5.07;2.08;;;17.80;54.00;;;;;;5077148;28;20174;-57
2023/02/04 02:05:08;;;;;;;6.03;2.35;;;17.80;54.10;;;;;;5095314;28;20208;-57
2023/02/04 02:07:33;;;;;;;7.20;2.75;;;17.80;54.00;;;;;;5094974;28;20240;-56
2023/02/04 02:09:59;;;;;;;4.88;2.53;;;17.80;54.00;;;;;;5094346;28;20166;-55
2023/02/04 02:12:24;;;;;;;6.38;2.60;;;17.70;54.00;;;;;;5094748;28;20230;-57
2023/02/04 02:14:50;;;;;;;4.25;2.15;;;17.80;54.00;;;;;;5094823;28;20207;-54
2023/02/04 02:17:15;;;;;;;6.88;2.50;;;17.70;54.00;;;;;;5059380;28;20174;-57
2023/02/04 02:19:41;;;;;;;4.72;2.03;;;17.70;54.00;;;;;;5094425;28;20228;-57
2023/02/04 02:22:13;;;;;;;5.80;2.63;;;17.70;54.00;;;;;;5076796;28;20166;-54
2023/02/04 02:24:38;;;;;;;6.90;2.17;;;17.70;54.00;;;;;;5076199;28;20170;-55
2023/02/04 02:27:07;;;;;;;4.93;2.15;;;17.70;54.00;;;;;;5094598;28;20188;-57
2023/02/04 02:29:32;;;;;;;4.28;2.40;;;17.70;54.00;;;;;;5076616;28;20180;-56
2023/02/04 02:31:58;;;;;;;3.80;2.00;;;17.70;54.00;;;;;;5075781;28;20166;-55
2023/02/04 02:34:24;;;;;;;4.57;2.17;;;17.70;54.00;;;;;;5094029;28;20209;-57
2023/02/04 02:36:50;;;;;;;4.05;2.30;;;17.70;54.00;;;;;;5094455;28;20293;-57
2023/02/04 02:39:15;;;;;;;6.80;2.42;;;17.60;53.90;;;;;;5075911;28;20265;-57
2023/02/04 02:41:41;;;;;;;6.45;2.72;;;17.60;53.90;;;;;;5094314;28;20177;-57
2023/02/04 02:44:07;;;;;;;3.50;2.13;;;17.60;53.90;;;;;;5059793;28;20195;-56
2023/02/04 02:46:33;;;;;;;3.58;1.90;;;17.60;53.90;;;;;;5075423;28;20192;-57
2023/02/04 02:48:58;;;;;;;4.28;2.28;;;17.60;53.90;;;;;;5076425;28;20166;-52
2023/02/04 02:51:24;;;;;;;5.78;2.35;;;17.60;53.90;;;;;;5093986;28;20192;-52
2023/02/04 02:53:50;;;;;;;5.85;2.17;;;17.60;53.90;;;;;;5093451;28;20256;-53
2023/02/04 02:56:17;;;;;;;5.32;2.42;;;17.60;53.90;;;;;;5075968;28;20617;-52
2023/02/04 02:58:42;;;;;;;3.10;1.80;;;17.60;53.90;;;;;;5076117;28;20306;-57
2023/02/04 03:01:08;;;;;;;3.88;2.30;;;17.60;54.00;;;;;;5105664;28;20173;-55
2023/02/04 03:03:43;;;;;;;5.53;2.97;;;17.60;53.90;;;;;;5114184;28;20225;-56
2023/02/04 03:06:14;;;;;;;3.95;2.00;;;17.60;53.90;;;;;;5095578;28;20173;-57
2023/02/04 03:08:39;;;;;;;5.03;2.40;;;17.60;53.90;;;;;;5096233;28;20180;-57
2023/02/04 03:11:05;;;;;;;5.78;2.50;;;17.50;53.90;;;;;;5114075;28;20547;-56
2023/02/04 03:13:32;;;;;;;5.00;2.30;;;17.50;53.90;;;;;;5094746;28;20172;-57
2023/02/04 03:15:58;;;;;;;3.85;2.25;;;17.50;53.90;;;;;;5114620;28;20224;-56
2023/02/04 03:18:23;;;;;;;4.07;2.20;;;17.50;53.90;;;;;;5113661;28;20213;-56
2023/02/04 03:20:49;;;;;;;4.10;2.25;;;17.50;53.90;;;;;;5095170;28;20165;-53
2023/02/04 03:23:14;;;;;;;6.05;2.63;;;17.50;53.90;;;;;;5114050;28;20185;-57
2023/02/04 03:25:40;;;;;;;4.25;1.85;;;17.50;53.90;;;;;;5113634;28;20173;-57
2023/02/04 03:28:05;;;;;;;5.35;2.20;;;17.50;53.90;;;;;;5113267;28;20257;-56
2023/02/04 03:30:31;;;;;;;4.13;2.00;;;17.50;53.80;;;;;;5113576;28;20172;-57
2023/02/04 03:32:57;;;;;;;4.95;2.20;;;17.50;53.90;;;;;;5113793;28;20172;-56
2023/02/04 03:35:22;;;;;;;5.30;2.28;;;17.50;53.80;;;;;;5112822;28;20201;-56
2023/02/04 03:37:48;;;;;;;4.18;2.03;;;17.50;53.80;;;;;;5113763;28;20183;-55
2023/02/04 03:40:13;;;;;;;7.15;2.40;;;17.50;53.80;;;;;;5113660;28;20165;-57
2023/02/04 03:42:39;;;;;;;5.82;2.35;;;17.50;53.80;;;;;;5112641;28;20540;-58
2023/02/04 03:45:05;;;;;;;4.93;2.20;;;17.50;53.80;;;;;;5113594;28;20177;-56
2023/02/04 03:47:30;;;;;;;4.30;2.28;;;17.40;53.80;;;;;;5113362;28;20224;-57
2023/02/04 03:49:56;;;;;;;5.90;2.60;;;17.40;53.80;;;;;;5112709;28;20177;-51
2023/02/04 03:52:21;;;;;;;4.22;2.15;;;17.40;53.80;;;;;;5113328;28;20204;-55
2023/02/04 03:54:47;;;;;;;4.80;2.10;;;17.40;53.80;;;;;;5113382;28;20256;-55
2023/02/04 03:57:14;;;;;;;4.18;2.00;;;17.40;53.80;;;;;;5112569;28;20250;-49
2023/02/04 03:59:40;;;;;;;4.13;2.13;;;17.40;53.70;;;;;;5113245;28;20173;-57
2023/02/04 04:02:05;;;;;;;4.20;2.35;;;17.40;53.70;;;;;;5112969;28;20651;-56
2023/02/04 04:04:31;;;;;;;5.18;2.03;;;17.40;53.80;;;;;;5112871;28;20293;-58
2023/02/04 04:06:56;;;;;;;6.10;2.15;;;17.40;53.70;;;;;;5113519;28;20306;-57
2023/02/04 04:09:22;;;;;;;3.70;1.80;;;17.40;53.70;;;;;;5112185;28;20252;-56
2023/02/04 04:11:47;;;;;;;5.10;1.92;;;17.30;53.70;;;;;;5113336;28;20248;-56
2023/02/04 04:14:13;;;;;;;5.68;2.30;;;17.40;53.70;;;;;;5113505;28;20604;-55
2023/02/04 04:16:38;;;;;;;4.07;2.05;;;17.30;53.70;;;;;;5112321;28;20726;-57
2023/02/04 04:19:04;;;;;;;3.97;2.20;;;17.30;53.70;;;;;;5113208;28;20220;-57
2023/02/04 04:21:29;;;;;;;5.22;2.10;;;17.30;53.70;;;;;;5112980;28;20188;-57
2023/02/04 04:23:55;;;;;;;3.80;2.17;;;17.30;53.70;;;;;;5112519;28;20177;-55
2023/02/04 04:26:21;;;;;;;5.88;2.25;;;17.30;53.70;;;;;;5114872;28;20182;-53
2023/02/04 04:28:46;;;;;;;4.20;2.08;;;17.30;53.70;;;;;;5117577;28;20214;-54
2023/02/04 04:31:12;;;;;;;5.93;2.40;;;17.30;53.70;;;;;;5116861;28;20181;-59
2023/02/04 04:33:38;;;;;;;3.70;1.75;;;17.30;53.70;;;;;;5117208;28;20165;-59
2023/02/04 04:36:04;;;;;;;4.03;1.92;;;17.30;53.70;;;;;;5117017;28;20227;-56
2023/02/04 04:38:29;;;;;;;4.47;2.17;;;17.30;53.70;;;;;;5116257;28;20272;-58
2023/02/04 04:40:55;;;;;;;5.15;2.25;;;17.30;53.70;;;;;;5117244;28;20256;-57
2023/02/04 04:43:20;;;;;;;4.95;1.88;;;17.20;53.60;;;;;;5116994;28;20257;-56
2023/02/04 04:45:46;;;;;;;3.33;1.95;;;17.20;53.60;;;;;;5116547;28;20248;-59
2023/02/04 04:48:12;;;;;;;6.03;1.98;;;17.20;53.60;;;;;;5117042;28;20256;-56
2023/02/04 04:50:37;;;;;;;3.38;1.80;;;17.20;53.60;;;;;;5116666;28;20172;-56
2023/02/04 04:53:03;;;;;;;3.40;1.83;;;17.20;53.60;;;;;;5116196;28;20222;-53
2023/02/04 04:55:29;;;;;;;4.50;2.25;;;17.20;53.60;;;;;;5116250;28;20238;-58
2023/02/04 04:57:55;;;;;;;5.82;2.15;;;17.20;53.60;;;;;;5117011;28;20256;-57
2023/02/04 05:00:20;;;;;;;3.25;1.73;;;17.20;53.60;;;;;;5115986;28;20263;-57
2023/02/04 05:02:46;;;;;;;4.47;2.25;;;17.20;53.60;;;;;;5117094;28;20264;-58
2023/02/04 05:05:12;;;;;;;4.63;2.33;;;17.20;53.60;;;;;;5116773;28;20169;-56
2023/02/04 05:07:37;;;;;;;4.25;1.75;;;17.20;53.60;;;;;;5115628;28;20184;-55
2023/02/04 05:10:03;;;;;;;5.07;2.58;;;17.20;53.60;;;;;;5116412;28;20177;-55
2023/02/04 05:12:28;;;;;;;3.75;2.00;;;17.20;53.60;;;;;;5115195;28;20260;-58
2023/02/04 05:14:54;;;;;;;4.63;2.15;;;17.20;53.60;;;;;;5116472;28;20205;-56
2023/02/04 05:17:20;;;;;;;4.28;2.03;;;17.10;53.60;;;;;;5116249;28;20220;-57
2023/02/04 05:19:45;;;;;;;4.32;1.90;;;17.10;53.60;;;;;;5115524;28;20225;-58
2023/02/04 05:22:11;;;;;;;4.82;2.17;;;17.10;53.60;;;;;;5116539;28;20173;-51
2023/02/04 05:24:36;;;;;;;4.15;1.75;;;17.10;53.60;;;;;;5116050;28;20173;-58
2023/02/04 05:27:02;;;;;;;3.70;2.03;;;17.10;53.60;;;;;;5115729;28;20204;-56
2023/02/04 05:29:27;;;;;;;4.88;2.10;;;17.10;53.60;;;;;;5116151;28;20177;-58
2023/02/04 05:31:53;;;;;;;2.90;1.83;;;17.10;53.60;;;;;;5116424;28;20530;-58
2023/02/04 05:34:18;;;;;;;3.95;1.90;;;17.10;53.60;;;;;;5114890;28;20627;-58
2023/02/04 05:36:44;;;;;;;3.58;1.80;;;17.10;53.60;;;;;;5115475;28;20686;-59
2023/02/04 05:39:09;;;;;;;4.22;1.98;;;17.10;53.50;;;;;;5115954;28;20169;-57
2023/02/04 05:41:35;;;;;;;4.50;2.20;;;17.10;53.60;;;;;;5114944;28;20667;-59
2023/02/04 05:44:00;;;;;;;3.83;1.95;;;17.10;53.60;;;;;;5115967;28;20537;-58
2023/02/04 05:46:26;;;;;;;4.32;1.70;;;17.10;53.50;;;;;;5115679;28;20173;-59
2023/02/04 05:48:51;;;;;;;4.88;2.05;;;17.10;53.50;;;;;;5115145;28;20173;-53
2023/02/04 05:51:17;;;;;;;3.45;1.75;;;17.00;53.50;;;;;;5115634;28;20174;-56
2023/02/04 05:53:42;;;;;;;5.88;2.17;;;17.00;53.50;;;;;;5115569;28;20516;-57
2023/02/04 05:56:08;;;;;;;5.13;2.13;;;17.00;53.50;;;;;;5115119;28;20619;-57
2023/02/04 05:58:33;;;;;;;3.15;1.95;;;17.00;53.50;;;;;;5115442;28;20620;-59
2023/02/04 06:01:00;;;;;;;4.93;2.00;;;17.00;53.50;;;;;;5115738;28;20177;-57
2023/02/04 06:03:26;;;;;;;3.28;1.70;;;17.00;53.50;;;;;;5114725;28;20409;-59
2023/02/04 06:05:51;;;;;;;3.85;1.80;;;17.00;54.10;;;;;;5115464;28;20173;-57
2023/02/04 06:08:17;;;;;;;4.20;2.25;;;17.00;53.40;;;;;;5115056;28;20620;-55
2023/02/04 06:10:43;;;;;;;4.90;1.75;;;17.00;54.10;;;;;;5114553;28;20173;-58
2023/02/04 06:13:08;;;;;;;5.25;1.95;;;17.00;53.50;;;;;;5115543;28;20588;-57
2023/02/04 06:15:34;;;;;;;2.60;1.65;;;17.00;53.40;;;;;;5115107;28;20228;-58
2023/02/04 06:17:59;;;;;;;4.72;2.00;;;16.90;53.40;;;;;;5114471;28;20220;-57
2023/02/04 06:20:27;;;;;;;4.82;1.98;;;17.00;53.50;;;;;;5115068;28;20177;-59
2023/02/04 06:22:53;;;;;;;3.03;1.60;;;16.90;53.40;;;;;;5114338;28;20191;-59
2023/02/04 06:25:20;;;;;;;4.03;1.60;;;16.90;53.40;;;;;;5114981;28;20169;-54
2023/02/04 06:27:45;;;;;;;5.25;2.15;;;16.90;53.40;;;;;;5115276;28;20233;-57
2023/02/04 06:30:11;;;;;;;3.13;1.60;;;16.90;53.40;;;;;;5114370;28;20169;-57
2023/02/04 06:32:37;;;;;;;2.67;1.67;;;16.90;53.40;;;;;;5114593;28;20670;-57
2023/02/04 06:35:03;;;;;;;4.57;2.28;;;16.90;53.40;;;;;;5114886;28;20173;-60
2023/02/04 06:37:28;;;;;;;5.82;2.22;;;16.90;53.40;;;;;;5113678;28;20606;-58
2023/02/04 06:39:56;;;;;;;4.40;2.17;;;16.90;53.50;;;;;;5115020;28;20184;-57
2023/02/04 06:42:22;;;;;;;3.67;1.90;;;16.90;53.50;;;;;;5114487;28;20173;-57
2023/02/04 06:44:47;;;;;;;4.13;2.00;;;16.90;53.50;;;;;;5113972;28;20165;-57
2023/02/04 06:47:13;;;;;;;3.42;1.77;;;16.90;53.40;;;;;;5114707;28;20632;-56
2023/02/04 06:49:38;;;;;;;3.28;2.00;;;16.90;53.50;;;;;;5113438;28;20169;-55
2023/02/04 06:52:04;;;;;;;3.58;1.95;;;16.80;53.40;;;;;;5113706;28;20172;-50
2023/02/04 06:54:30;;;;;;;4.90;1.90;;;16.90;53.50;;;;;;5114293;28;20185;-59
2023/02/04 06:57:02;;;;;;;4.30;2.10;;;16.80;53.40;;;;;;5114452;28;20265;-56
2023/02/04 06:59:31;;;;;;;4.00;2.10;;;16.80;53.40;;;;;;5113523;28;20169;-58
2023/02/04 07:01:56;;;;;;;5.30;2.38;;;16.80;53.40;;;;;;5114360;28;20636;-56
2023/02/04 07:04:22;;;;;;;4.32;2.17;;;16.80;53.40;;;;;;5114083;28;20252;-57
2023/02/04 07:06:47;;;;;;;2.80;1.80;;;16.80;53.40;;;;;;5113461;28;20645;-57
2023/02/04 07:09:13;;;;;;;3.47;1.77;;;16.80;53.40;;;;;;5114474;28;20161;-57
2023/02/04 07:11:38;;;;;;;4.55;2.42;;;16.80;54.00;;;;;;5113874;28;20179;-58
2023/02/04 07:14:04;;;;;;;3.88;2.10;;;16.80;53.40;;;;;;5113428;28;20267;-56
2023/02/04 07:16:29;;;;;;;4.18;2.15;;;16.80;53.40;;;;;;5113698;28;20292;-59
2023/02/04 07:18:55;;;;;;;5.20;2.25;;;16.80;53.40;;;;;;5113949;28;20326;-58
2023/02/04 07:21:21;;;;;;;2.97;2.28;;;16.80;53.40;;;;;;5112852;28;20196;-58
2023/02/04 07:23:46;;;;;;;4.93;2.20;;;16.80;53.40;;;;;;5114011;28;20181;-57
2023/02/04 07:26:12;;;;;;;3.72;2.10;;;16.70;53.40;;;;;;5113346;28;20281;-56
2023/02/04 07:28:40;;;;;;;3.97;2.25;;;16.70;53.40;;;;;;5113754;28;20268;-59
2023/02/04 07:31:05;;;;;;;6.28;2.33;;;16.70;53.40;;;;;;5113645;28;20177;-54
2023/02/04 07:33:31;;;;;;;4.20;2.08;;;16.70;53.40;;;;;;5112673;28;20631;-58
2023/02/04 07:35:56;;;;;;;2.92;1.80;;;16.70;53.40;;;;;;5113509;28;20204;-56
2023/02/04 07:38:22;;;;;;;4.10;2.30;;;16.70;53.40;;;;;;5113605;28;20169;-58
2023/02/04 07:40:47;;;;;;;3.88;2.35;;;16.70;53.40;;;;;;5113045;28;20200;-59
2023/02/04 07:43:13;;;;;;;3.80;1.77;;;16.70;53.40;;;;;;5113804;28;20248;-59
2023/02/04 07:45:38;;;;;;;3.67;2.10;;;16.70;53.40;;;;;;5113356;28;20252;-57
2023/02/04 07:48:04;;;;;;;3.80;1.80;;;16.70;53.40;;;;;;5112862;28;20727;-55
2023/02/04 07:50:30;;;;;;;3.58;2.22;;;16.70;53.40;;;;;;5113623;28;20259;-57
2023/02/04 07:52:55;;;;;;;3.45;2.13;;;16.70;53.40;;;;;;5113601;28;20177;-52
2023/02/04 07:55:21;;;;;;;4.50;1.98;;;16.70;53.40;;;;;;5112431;28;20165;-56
2023/02/04 07:57:46;;;;;;;3.10;1.95;;;16.70;53.40;;;;;;5113407;28;20545;-58
2023/02/04 08:00:13;;;;;;;3.58;2.10;;;16.70;53.40;;;;;;5113077;28;20631;-59
2023/02/04 08:02:40;;;;;;;5.75;1.98;;;16.70;54.20;;;;;;5112513;28;20180;-66
2023/02/04 08:05:06;;;;;;;3.95;1.95;;;16.70;53.50;;;;;;5113451;28;20540;-63
2023/02/04 08:07:31;;;;;;;3.55;1.90;;;16.70;53.50;;;;;;5113176;28;20170;-65
2023/02/04 08:09:57;;;;;;;5.35;2.63;;;16.70;53.50;;;;;;5112777;28;20184;-65
2023/02/04 08:12:22;;;;;;;5.13;1.75;;;16.70;53.60;;;;;;5112852;28;20169;-63
2023/02/04 08:14:48;;;;;;;4.15;2.10;;;16.70;53.60;;;;;;5113266;28;20180;-67
2023/02/04 08:17:13;;;;;;;5.32;2.42;;;16.70;54.00;;;;;;5112562;28;20554;-66
2023/02/04 08:19:39;;;;;;;3.65;1.95;;;16.80;54.70;;;;;;5112632;28;20706;-66
2023/02/04 08:22:04;;;;;;;4.75;1.98;;;16.80;54.10;;;;;;5111709;28;20532;-65
2023/02/04 08:24:30;;;;;;;4.43;2.30;;;16.80;54.00;;;;;;5112130;28;20527;-66
2023/02/04 08:26:57;;;;;;;5.32;2.08;;;16.90;54.10;;;;;;5113129;28;20210;-66
2023/02/04 08:29:24;;;;;;;5.55;1.90;;;17.00;53.90;;;;;;5111376;28;20260;-65
2023/02/04 08:31:50;;;;;;;6.20;2.50;;;17.20;53.90;;;;;;5113293;28;20173;-66
2023/02/04 08:34:15;;;;;;;6.22;2.42;;;17.40;53.70;;;;;;5112977;28;20173;-66
2023/02/04 08:36:41;;;;;;;3.88;1.70;;;17.50;53.50;;;;;;5112136;28;20989;-66
2023/02/04 08:39:06;;;;;;;4.60;2.22;;;17.70;53.30;;;;;;5112803;28;20572;-66
2023/02/04 08:41:32;;;;;;;4.70;1.98;;;18.00;53.10;;;;;;5112790;28;20177;-65
2023/02/04 08:43:58;;;;;;;5.43;2.67;;;18.20;52.80;;;;;;5112373;28;20184;-65
2023/02/04 08:46:23;;;;;;;4.85;2.47;;;18.40;52.50;;;;;;5112819;28;20294;-65
2023/02/04 08:48:49;;;;;;;4.07;1.90;;;18.50;52.30;;;;;;5112770;28;20173;-65
2023/02/04 08:51:15;;;;;;;6.85;2.55;;;18.80;52.10;;;;;;5112395;28;20173;-65
2023/02/04 08:53:41;;;;;;;6.07;2.28;;;18.90;51.70;;;;;;5112476;28;20628;-66
2023/02/04 08:56:08;;;;;;;5.15;2.45;;;19.00;51.50;;;;;;5112678;28;20205;-65
2023/02/04 08:58:33;;;;;;;5.88;2.15;;;19.10;51.40;;;;;;5111704;28;20174;-66
2023/02/04 09:00:59;;;;;;;3.38;2.03;;;19.00;51.30;;;;;;5112806;28;20195;-66
2023/02/04 09:03:24;;;;;;;4.25;2.05;;;19.10;51.30;;;;;;5112363;28;20169;-66
2023/02/04 09:05:50;;;;;;;4.05;2.08;;;19.10;51.30;;;;;;5112268;28;20528;-66
2023/02/04 09:08:16;;;;;;;7.43;2.72;;;19.10;51.30;;;;;;5112895;28;20177;-66
2023/02/04 09:10:41;;;;;;;6.07;2.60;;;19.10;51.40;;;;;;5112675;28;20517;-66
2023/02/04 09:13:10;;;;;;;5.35;2.35;;;19.10;51.40;;;;;;5115023;28;20169;-66
2023/02/04 09:15:36;;;;;;;4.00;2.00;;;19.10;51.50;;;;;;5115845;28;20667;-66
2023/02/04 09:18:10;;;;;;;6.60;2.33;;;19.00;51.60;;;;;;5116433;28;20235;-65
2023/02/04 09:20:38;;;;;;;7.22;2.35;;;19.10;51.50;;;;;;5115308;28;20180;-66
2023/02/04 09:23:05;;;;;;;4.85;2.20;;;19.00;51.50;;;;;;5116431;28;20181;-66
2023/02/04 09:25:31;;;;;;;5.15;2.40;;;19.00;51.70;;;;;;5116077;28;20176;-66
2023/02/04 09:27:56;;;;;;;6.35;2.70;;;19.00;51.60;;;;;;5115497;28;20176;-66
2023/02/04 09:30:22;;;;;;;4.88;2.28;;;19.00;51.60;;;;;;5115651;28;20173;-65
2023/02/04 09:32:47;;;;;;;9.23;3.00;;;19.00;51.60;;;;;;5115612;28;20181;-64
2023/02/04 09:35:13;;;;;;;16.65;3.10;;;19.00;52.00;;;;;;5116150;28;20181;-64
2023/02/04 09:37:39;;;;;;;5.85;3.13;;;19.20;51.70;;;;;;5115769;28;20180;-66
2023/02/04 09:40:05;;;;;;;7.70;3.17;;;19.20;51.80;;;;;;5115391;28;20169;-65
2023/02/04 09:42:30;;;;;;;5.70;2.70;;;19.20;51.80;;;;;;5115472;28;20283;-65
2023/02/04 09:44:56;;;;;;;9.38;3.60;;;19.20;51.70;;;;;;5115604;28;20184;-65
2023/02/04 09:47:22;;;;;;;7.07;3.20;;;19.30;51.70;;;;;;5114775;28;20177;-65
2023/02/04 09:49:48;;;;;;;6.90;3.22;;;19.20;51.70;;;;;;5097857;28;20169;-65
2023/02/04 09:52:14;;;;;;;8.05;3.05;;;19.20;51.80;;;;;;5115747;28;20173;-65
2023/02/04 09:54:40;;;;;;;6.82;3.10;;;19.20;51.80;;;;;;5096512;28;20184;-65
2023/02/04 09:57:21;;;;;;;6.68;3.10;;;19.20;51.70;;;;;;5115621;28;20208;-66
2023/02/04 09:59:46;;;;;;;6.22;2.60;;;19.20;51.70;;;;;;5099066;28;20171;-65
2023/02/04 10:02:23;;;;;;;7.93;2.85;;;19.20;51.70;;;;;;5096583;28;20264;-67
2023/02/04 10:04:49;;;;;;;9.45;3.55;;;19.30;51.70;;;;;;5114812;28;20180;-64
2023/02/04 10:07:16;;;;;;;7.95;3.53;;;19.20;51.50;;;;;;5097124;28;20192;-64
2023/02/04 10:09:42;;;;;;;13.65;3.78;;;19.20;51.50;;;;;;5079484;28;20262;-64
2023/02/04 10:12:07;;;;;;;11.25;3.22;;;19.30;51.70;;;;;;5115099;28;20631;-69
2023/02/04 10:14:33;;;;;;;9.15;3.10;;;19.30;51.60;;;;;;5096892;28;20249;-68
2023/02/04 10:16:59;;;;;;;9.80;3.05;;;19.40;51.60;;;;;;5096244;28;20236;-66
2023/02/04 10:19:24;;;;;;;7.05;2.85;;;19.40;51.60;;;;;;5096626;28;20266;-66
2023/02/04 10:21:50;;;;;;;7.38;2.60;;;19.50;51.60;;;;;;5080282;28;20264;-65
2023/02/04 10:24:20;;;;;;;7.03;2.47;;;19.50;51.60;;;;;;5112987;28;20250;-66
2023/02/04 10:26:45;;;;;;;8.25;3.10;;;19.50;51.80;;;;;;5087917;28;20174;-66
2023/02/04 10:29:19;;;;;;;8.15;3.10;;;19.50;51.90;;;;;;5097804;28;20175;-66
2023/02/04 10:31:48;;;;;;;5.13;2.47;;;19.50;51.90;;;;;;5115308;28;20332;-67
2023/02/04 10:34:22;;;;;;;6.70;2.78;;;19.50;52.10;;;;;;5115055;28;20218;-67
2023/02/04 10:36:49;;;;;;;7.47;3.28;;;19.40;52.70;;;;;;5075805;28;20217;-69
2023/02/04 10:39:15;;;;;;;6.75;2.53;;;19.40;52.70;;;;;;5094222;28;20169;-66
2023/02/04 10:41:49;;;;;;;6.20;2.75;;;19.30;52.90;;;;;;5094026;28;20616;-64
2023/02/04 10:44:16;;;;;;;9.68;2.88;;;19.30;53.10;;;;;;5097637;28;20177;-62
2023/02/04 10:46:42;;;;;;;6.65;2.88;;;19.30;52.80;;;;;;5114035;28;20749;-62
2023/02/04 10:49:21;;;;;;;9.05;2.58;;;19.20;52.80;;;;;;5113741;28;20169;-61
2023/02/04 10:51:47;;;;;;;8.88;2.85;;;19.00;52.90;;;;;;5113531;28;20214;-62
2023/02/04 10:54:31;;;;;;;6.95;2.88;;;18.90;52.90;;;;;;5114452;28;20599;-61
2023/02/04 10:57:00;;;;;;;7.40;3.67;;;18.80;53.00;;;;;;5099042;28;20208;-62
2023/02/04 10:59:26;;;;;;;7.13;2.97;;;18.70;53.20;;;;;;5113612;28;20176;-62
2023/02/04 11:01:55;;;;;;;6.82;2.60;;;18.70;53.30;;;;;;5113858;28;20235;-62
2023/02/04 11:04:21;;;;;;;9.15;3.00;;;18.70;53.40;;;;;;5078772;28;20184;-62
2023/02/04 11:06:46;;;;;;;7.55;2.83;;;18.70;53.40;;;;;;5114194;28;20169;-62
2023/02/04 11:09:13;;;;;;;8.02;3.03;;;18.70;53.30;;;;;;5114354;28;20172;-62
2023/02/04 11:11:47;;;;;;;8.77;3.10;;;18.70;53.30;;;;;;5095321;28;20685;-64
2023/02/04 11:14:24;;;;;;;7.80;2.72;;;18.70;53.20;;;;;;5109997;28;20181;-62
2023/02/04 11:16:49;;;;;;;8.88;2.70;;;18.70;53.20;;;;;;5093675;28;20736;-64
2023/02/04 11:19:28;;;;;;;8.98;3.30;;;18.70;53.30;;;;;;5092912;28;20229;-63
2023/02/04 11:22:02;;;;;;;5.10;2.30;;;18.70;53.30;;;;;;5093669;28;20273;-63
2023/02/04 11:24:32;;;;;;;7.82;2.50;;;18.60;53.30;;;;;;5076645;28;20260;-63
2023/02/04 11:27:06;;;;;;;9.50;3.55;;;18.70;54.00;;;;;;5092827;28;20169;-63
2023/02/04 11:29:40;;;;;;;7.10;2.85;;;18.70;53.30;;;;;;5100126;28;20226;-62
2023/02/04 11:32:24;;;;;;;7.75;2.97;;;18.70;53.40;;;;;;5113792;28;20203;-62
2023/02/04 11:34:51;;;;;;;6.60;2.58;;;18.70;53.30;;;;;;5113452;28;20169;-62
2023/02/04 11:37:26;;;;;;;8.05;2.97;;;18.70;53.30;;;;;;5113429;28;20217;-63
2023/02/04 11:39:51;;;;;;;7.63;2.95;;;18.80;53.10;;;;;;5112944;28;20168;-62
2023/02/04 11:42:39;;;;;;;7.43;2.88;;;18.80;53.10;;;;;;5091043;28;20192;-62
2023/02/04 11:45:21;;;;;;;7.45;2.70;;;18.70;53.10;;;;;;5113734;28;20208;-62
2023/02/04 11:47:47;;;;;;;9.45;3.53;;;18.70;53.20;;;;;;5079261;28;20528;-62
2023/02/04 11:50:40;;;;;;;7.28;2.58;;;18.60;53.20;;;;;;5113514;28;20176;-62
2023/02/04 11:53:07;;;;;;;8.02;2.90;;;18.70;53.30;;;;;;5098812;28;20575;-62
2023/02/04 11:55:34;;;;;;;8.65;2.47;;;18.60;53.30;;;;;;5094356;28;20197;-62
2023/02/04 11:58:00;;;;;;;8.10;2.50;;;18.70;53.40;;;;;;5113483;28;20177;-62
2023/02/04 12:00:28;;;;;;;7.65;2.67;;;18.70;53.40;;;;;;5112410;28;20260;-62
2023/02/04 12:02:56;;;;;;;6.47;2.90;;;18.70;53.30;;;;;;5113391;28;20252;-62
2023/02/04 12:05:34;;;;;;;6.97;3.05;;;18.80;53.30;;;;;;5113252;28;20169;-62
2023/02/04 12:08:08;;;;;;;6.43;2.42;;;18.70;53.20;;;;;;5095334;28;20642;-62
2023/02/04 12:10:34;;;;;;;7.45;2.70;;;18.70;53.20;;;;;;5113114;28;20176;-62
2023/02/04 12:13:00;;;;;;;7.28;2.78;;;18.70;53.30;;;;;;5112839;28;20275;-62
2023/02/04 12:15:36;;;;;;;6.85;2.67;;;18.70;53.30;;;;;;5112223;28;20192;-63
2023/02/04 12:18:03;;;;;;;5.72;2.67;;;18.70;53.30;;;;;;5113389;28;20231;-62
2023/02/04 12:20:29;;;;;;;7.15;3.10;;;18.70;53.40;;;;;;5113029;28;20179;-62
2023/02/04 12:22:55;;;;;;;5.43;2.22;;;18.70;53.40;;;;;;5112102;28;20666;-62
2023/02/04 12:25:23;;;;;;;7.65;2.80;;;18.80;53.30;;;;;;5094794;28;20165;-62
2023/02/04 12:27:50;;;;;;;5.93;2.83;;;18.80;53.20;;;;;;5113330;28;20623;-62
2023/02/04 12:30:17;;;;;;;7.35;2.92;;;18.80;53.20;;;;;;5112426;28;20181;-62
2023/02/04 12:32:43;;;;;;;7.20;2.88;;;18.80;53.20;;;;;;5097079;28;20193;-63
2023/02/04 12:35:08;;;;;;;5.53;2.55;;;18.70;53.30;;;;;;5108172;28;20177;-63
2023/02/04 12:37:34;;;;;;;7.40;2.85;;;18.70;53.40;;;;;;5112108;28;20296;-62
2023/02/04 12:39:59;;;;;;;5.50;2.88;;;18.50;53.30;;;;;;5112964;28;20535;-62
2023/02/04 12:42:25;;;;;;;7.10;2.95;;;18.60;53.40;;;;;;5099541;28;20569;-62